Time;durP1;ratioP1;P1;durP2;ratioP2;P2;SDS_P1;SDS_P2;PMS_P1;PMS_P2;Temp;Humidity;BMP_temperature;BMP_pressure;BME280_temperature;BME280_humidity;BME280_pressure;Samples;Min_cycle;Max_cycle;Signal;HPM_P1;HPM_P2
2022/01/31 00:02:19;;;;;;;17.02;6.05;;;;;;;6.18;77.10;101443.47;4864159;29;20037;-49
2022/01/31 00:04:47;;;;;;;16.85;6.07;;;;;;;6.33;80.94;101422.28;4863828;29;20519;-46
2022/01/31 00:07:15;;;;;;;14.48;5.40;;;;;;;6.27;78.18;101408.81;4864321;29;20052;-47
2022/01/31 00:09:44;;;;;;;12.43;5.00;;;;;;;6.22;79.87;101385.16;4847872;29;20091;-44
2022/01/31 00:12:15;;;;;;;14.30;5.47;;;;;;;6.18;77.34;101389.34;4864151;29;20057;-48
2022/01/31 00:14:47;;;;;;;16.45;5.97;;;;;;;6.10;76.92;101386.94;4847034;29;20049;-45
2022/01/31 00:17:15;;;;;;;16.15;5.45;;;;;;;6.23;79.82;101391.38;4863591;29;20037;-48
2022/01/31 00:19:43;;;;;;;17.83;5.30;;;;;;;6.22;78.40;101378.91;4864087;29;20505;-45
2022/01/31 00:22:13;;;;;;;18.73;6.18;;;;;;;6.15;77.47;101382.50;4863360;29;20045;-48
2022/01/31 00:24:41;;;;;;;17.00;5.90;;;;;;;6.08;77.34;101364.69;4864127;29;20057;-47
2022/01/31 00:27:09;;;;;;;14.95;4.57;;;;;;;6.10;78.16;101346.38;4863402;29;20090;-47
2022/01/31 00:29:37;;;;;;;15.50;5.47;;;;;;;6.19;80.16;101326.06;4863619;29;20512;-47
2022/01/31 00:32:05;;;;;;;17.45;5.63;;;;;;;6.17;78.72;101329.00;4846799;29;20128;-47
2022/01/31 00:34:32;;;;;;;15.45;5.63;;;;;;;6.28;80.63;101308.50;4863560;29;20049;-47
2022/01/31 00:37:00;;;;;;;16.23;5.32;;;;;;;6.33;82.04;101300.50;4863417;29;20061;-49
2022/01/31 00:39:33;;;;;;;14.50;5.15;;;;;;;6.23;80.52;101291.25;4845296;29;20107;-48
2022/01/31 00:42:02;;;;;;;14.15;4.90;;;;;;;6.34;82.15;101275.09;4851156;29;20049;-46
2022/01/31 00:44:50;;;;;;;15.85;5.45;;;;;;;6.26;82.08;101256.47;4846805;29;20053;-46
2022/01/31 00:47:21;;;;;;;17.70;5.63;;;;;;;6.23;80.77;101261.50;4863290;29;20049;-48
2022/01/31 00:49:51;;;;;;;18.58;5.90;;;;;;;6.15;80.11;101238.28;4863351;29;20132;-47
2022/01/31 00:52:19;;;;;;;15.50;5.38;;;;;;;6.19;83.37;101215.97;4846015;29;20072;-45
2022/01/31 00:54:48;;;;;;;19.52;5.70;;;;;;;6.15;81.63;101217.47;4863130;29;20060;-50
2022/01/31 00:57:16;;;;;;;18.00;5.15;;;;;;;6.13;81.75;101216.06;4864073;29;20085;-50
2022/01/31 00:59:45;;;;;;;19.05;5.10;;;;;;;6.08;81.99;101205.09;4863580;29;20057;-48
2022/01/31 01:02:13;;;;;;;17.35;5.30;;;;;;;6.09;83.49;101190.53;4846677;29;20045;-48
2022/01/31 01:04:41;;;;;;;15.23;4.90;;;;;;;6.08;83.85;101183.44;4846713;29;20073;-47
2022/01/31 01:07:09;;;;;;;15.13;4.78;;;;;;;6.07;85.14;101173.69;4846593;29;20505;-48
2022/01/31 01:09:37;;;;;;;16.80;4.95;;;;;;;6.01;85.10;101166.50;4862492;29;20061;-48
2022/01/31 01:12:05;;;;;;;16.00;4.70;;;;;;;6.01;86.11;101155.66;4846272;29;20116;-49
2022/01/31 01:14:33;;;;;;;15.88;4.95;;;;;;;6.10;88.53;101151.59;4846546;29;20049;-46
2022/01/31 01:17:01;;;;;;;18.73;5.43;;;;;;;6.00;87.23;101145.91;4862660;29;20050;-47
2022/01/31 01:19:28;;;;;;;16.25;5.28;;;;;;;6.06;87.75;101137.72;4862285;29;20045;-49
2022/01/31 01:21:56;;;;;;;11.70;3.95;;;;;;;6.18;90.45;101116.06;4862490;29;20584;-48
2022/01/31 01:24:24;;;;;;;17.85;5.72;;;;;;;6.10;89.29;101122.66;4846141;29;20046;-47
2022/01/31 01:26:52;;;;;;;15.18;4.78;;;;;;;6.08;89.25;101102.28;4846077;29;20099;-46
2022/01/31 01:29:22;;;;;;;12.68;4.47;;;;;;;6.11;91.47;101082.88;4845699;29;20042;-49
2022/01/31 01:31:50;;;;;;;17.05;5.57;;;;;;;6.00;90.00;101089.13;4846402;29;20073;-45
2022/01/31 01:34:22;;;;;;;20.15;5.78;;;;;;;5.93;90.25;101073.78;4846140;29;20047;-47
2022/01/31 01:36:53;;;;;;;13.48;4.30;;;;;;;5.92;90.36;101061.31;4845890;29;20050;-47
2022/01/31 01:39:21;;;;;;;14.85;4.90;;;;;;;6.02;92.15;101038.31;4846027;29;20053;-47
2022/01/31 01:41:48;;;;;;;21.33;6.15;;;;;;;6.05;92.36;101032.44;4845608;29;20056;-47
2022/01/31 01:44:18;;;;;;;15.27;5.35;;;;;;;5.95;91.73;101038.41;4846071;29;20140;-49
2022/01/31 01:46:46;;;;;;;15.48;4.85;;;;;;;5.86;91.78;101029.78;4844912;29;20049;-49
2022/01/31 01:49:15;;;;;;;11.98;4.28;;;;;;;5.84;92.21;101031.88;4845769;29;20515;-50
2022/01/31 01:51:43;;;;;;;11.48;4.57;;;;;;;5.90;93.71;101030.97;4845318;29;20078;-48
2022/01/31 01:54:12;;;;;;;14.40;4.63;;;;;;;5.89;93.20;101013.09;4846114;29;20050;-53
2022/01/31 01:56:40;;;;;;;17.95;5.03;;;;;;;5.92;92.90;100998.28;4830751;29;20053;-50
2022/01/31 01:59:10;;;;;;;13.20;4.18;;;;;;;5.89;93.64;100986.06;4845242;29;20530;-48
2022/01/31 02:01:51;;;;;;;14.30;4.57;;;;;;;5.84;93.53;100966.16;4816947;29;20057;-44
2022/01/31 02:04:18;;;;;;;14.80;5.18;;;;;;;5.89;93.49;100959.03;4844735;29;20105;-50
2022/01/31 02:06:46;;;;;;;12.07;4.03;;;;;;;5.86;94.11;100951.34;4845205;29;20054;-49
2022/01/31 02:09:21;;;;;;;11.25;4.55;;;;;;;5.85;94.55;100940.78;4845067;29;20128;-49
2022/01/31 02:11:49;;;;;;;14.38;4.60;;;;;;;5.85;94.45;100928.09;4845184;29;20057;-45
2022/01/31 02:14:17;;;;;;;14.13;4.50;;;;;;;5.94;94.52;100924.03;4854039;29;20053;-47
2022/01/31 02:17:08;;;;;;;13.57;4.32;;;;;;;5.86;94.66;100927.03;4856095;29;20827;-47
2022/01/31 02:19:43;;;;;;;12.27;4.10;;;;;;;5.84;95.12;100920.22;4844363;29;20073;-47
2022/01/31 02:22:17;;;;;;;13.30;4.55;;;;;;;5.81;95.60;100910.69;4861783;29;20062;-49
2022/01/31 02:24:47;;;;;;;10.15;3.80;;;;;;;5.85;95.89;100914.56;4861625;29;20044;-49
2022/01/31 02:27:36;;;;;;;13.43;4.47;;;;;;;5.82;96.41;100903.38;4861104;29;20145;-45
2022/01/31 02:30:14;;;;;;;13.00;4.20;;;;;;;5.84;96.72;100891.28;4844685;29;20145;-47
2022/01/31 02:32:45;;;;;;;17.25;4.53;;;;;;;5.79;97.53;100893.06;4845441;29;20411;-49
2022/01/31 02:35:13;;;;;;;14.15;4.35;;;;;;;5.80;97.69;100905.50;4862013;29;20049;-46
2022/01/31 02:37:42;;;;;;;12.93;4.38;;;;;;;5.80;97.96;100894.69;4845366;29;20053;-45
2022/01/31 02:40:19;;;;;;;13.23;4.28;;;;;;;5.81;98.33;100880.13;4844643;29;20069;-44
2022/01/31 02:42:46;;;;;;;13.85;4.25;;;;;;;5.83;98.54;100876.13;4844773;29;20046;-47
2022/01/31 02:45:14;;;;;;;11.60;4.25;;;;;;;5.83;98.59;100868.00;4844765;29;20049;-43
2022/01/31 02:47:50;;;;;;;13.02;4.53;;;;;;;5.79;99.13;100860.59;4844969;29;20132;-47
2022/01/31 02:50:19;;;;;;;12.25;4.15;;;;;;;5.78;99.57;100858.97;4844774;29;20105;-48
2022/01/31 02:52:57;;;;;;;9.45;3.90;;;;;;;5.79;99.76;100860.59;4844305;29;20093;-47
2022/01/31 02:55:24;;;;;;;7.90;2.92;;;;;;;5.78;99.91;100843.56;4845507;29;20049;-47
2022/01/31 02:57:52;;;;;;;10.93;3.55;;;;;;;5.80;100.00;100832.50;4845273;29;20074;-50
2022/01/31 03:00:20;;;;;;;11.95;3.88;;;;;;;5.79;100.00;100837.09;4844863;29;20045;-46
2022/01/31 03:03:12;;;;;;;11.57;3.70;;;;;;;5.81;100.00;100831.47;4844356;29;20056;-48
2022/01/31 03:05:41;;;;;;;9.10;3.22;;;;;;;5.79;100.00;100831.69;4844980;29;20120;-47
2022/01/31 03:08:09;;;;;;;8.75;3.33;;;;;;;5.80;100.00;100830.63;4844560;29;20055;-48
2022/01/31 03:10:37;;;;;;;9.80;3.38;;;;;;;5.81;100.00;100826.88;4844536;29;20055;-49
2022/01/31 03:13:06;;;;;;;9.50;3.22;;;;;;;5.80;100.00;100830.63;4844299;29;20045;-48
2022/01/31 03:15:40;;;;;;;9.43;3.15;;;;;;;5.81;100.00;100818.75;4844251;29;20046;-47
2022/01/31 03:18:13;;;;;;;10.13;3.35;;;;;;;5.84;100.00;100820.16;4861472;29;20049;-46
2022/01/31 03:20:42;;;;;;;9.93;3.10;;;;;;;5.83;100.00;100830.16;4844275;29;20069;-47
2022/01/31 03:23:11;;;;;;;12.63;3.95;;;;;;;5.85;100.00;100817.22;4843999;29;20497;-48
2022/01/31 03:25:39;;;;;;;10.88;3.72;;;;;;;5.85;100.00;100814.53;4844610;29;20052;-47
2022/01/31 03:28:06;;;;;;;11.88;3.97;;;;;;;5.86;100.00;100808.06;4844242;29;20129;-50
2022/01/31 03:30:35;;;;;;;14.15;4.65;;;;;;;5.89;100.00;100807.59;4860599;29;20046;-49
2022/01/31 03:33:03;;;;;;;13.15;4.15;;;;;;;5.90;100.00;100792.19;4860951;29;20140;-48
2022/01/31 03:35:30;;;;;;;11.45;4.00;;;;;;;5.92;100.00;100790.06;4860779;29;20055;-45
2022/01/31 03:37:58;;;;;;;14.65;4.18;;;;;;;5.95;100.00;100789.63;4844218;29;20584;-47
2022/01/31 03:40:28;;;;;;;18.38;5.07;;;;;;;5.95;100.00;100801.25;4844080;29;20057;-49
2022/01/31 03:42:56;;;;;;;16.30;4.70;;;;;;;5.95;100.00;100784.22;4843510;29;20048;-49
2022/01/31 03:45:24;;;;;;;16.73;4.53;;;;;;;6.00;100.00;100767.28;4844212;29;20045;-47
2022/01/31 03:48:08;;;;;;;16.00;4.20;;;;;;;6.00;100.00;100770.78;4844246;29;20045;-49
2022/01/31 03:50:37;;;;;;;14.93;4.40;;;;;;;6.02;100.00;100778.69;4844419;29;20057;-49
2022/01/31 03:53:04;;;;;;;18.63;4.72;;;;;;;6.03;100.00;100774.91;4860008;29;20049;-47
2022/01/31 03:55:32;;;;;;;15.98;4.43;;;;;;;6.03;100.00;100791.94;4842362;29;20114;-52
2022/01/31 03:58:00;;;;;;;20.98;4.78;;;;;;;6.06;100.00;100785.22;4826125;29;20153;-50
2022/01/31 04:00:41;;;;;;;14.07;4.00;;;;;;;6.04;100.00;100785.50;4825499;29;20402;-46
2022/01/31 04:03:09;;;;;;;13.77;4.05;;;;;;;6.07;100.00;100757.97;4853101;29;20041;-46
2022/01/31 04:05:37;;;;;;;14.50;4.00;;;;;;;6.09;99.92;100782.88;4860065;29;20073;-48
2022/01/31 04:08:09;;;;;;;17.55;4.68;;;;;;;6.10;98.98;100784.50;4860400;29;20046;-46
2022/01/31 04:10:37;;;;;;;16.40;4.18;;;;;;;6.11;97.83;100769.09;4860729;29;20114;-46
2022/01/31 04:13:08;;;;;;;14.68;3.83;;;;;;;6.16;97.35;100769.22;4860387;29;20042;-47
2022/01/31 04:15:36;;;;;;;17.10;3.95;;;;;;;6.16;96.70;100763.81;4860261;29;20090;-46
2022/01/31 04:18:04;;;;;;;14.73;4.15;;;;;;;6.17;95.98;100770.88;4860740;29;20133;-46
2022/01/31 04:20:32;;;;;;;12.82;3.92;;;;;;;6.19;94.69;100757.94;4860325;29;20045;-46
2022/01/31 04:23:05;;;;;;;14.40;4.13;;;;;;;6.19;94.09;100763.34;4859990;29;20045;-47
2022/01/31 04:25:52;;;;;;;15.75;4.47;;;;;;;6.21;94.71;100761.22;4860368;29;20553;-47
2022/01/31 04:28:26;;;;;;;16.23;4.20;;;;;;;6.20;94.48;100754.16;4862244;29;20133;-45
2022/01/31 04:31:00;;;;;;;17.05;3.85;;;;;;;6.23;94.51;100752.84;4847680;29;20485;-44
2022/01/31 04:33:29;;;;;;;17.50;4.40;;;;;;;6.19;93.86;100731.69;4863095;29;20098;-47
2022/01/31 04:35:57;;;;;;;14.95;4.10;;;;;;;6.19;92.89;100753.31;4863380;29;20081;-46
2022/01/31 04:38:24;;;;;;;15.98;4.05;;;;;;;6.21;92.76;100755.81;4863516;29;20553;-46
2022/01/31 04:40:52;;;;;;;15.80;4.00;;;;;;;6.28;92.33;100755.66;4863123;29;20045;-47
2022/01/31 04:43:19;;;;;;;13.75;3.95;;;;;;;6.25;90.72;100765.06;4863574;29;20106;-47
2022/01/31 04:45:48;;;;;;;14.75;4.07;;;;;;;6.25;90.55;100751.53;4863015;29;20042;-47
2022/01/31 04:48:17;;;;;;;16.77;4.35;;;;;;;6.24;90.40;100754.50;4863492;29;20034;-46
2022/01/31 04:50:46;;;;;;;14.90;3.85;;;;;;;6.22;89.74;100757.44;4863219;29;20099;-47
2022/01/31 04:53:14;;;;;;;16.08;4.10;;;;;;;6.22;89.30;100746.63;4863186;29;20080;-49
2022/01/31 04:55:42;;;;;;;14.73;4.28;;;;;;;6.20;87.98;100748.72;4863315;29;20053;-49
2022/01/31 04:58:10;;;;;;;14.57;4.07;;;;;;;6.22;87.71;100746.63;4863595;29;20057;-51
2022/01/31 05:00:38;;;;;;;13.43;3.88;;;;;;;6.21;87.63;100744.16;4863004;29;20042;-50
2022/01/31 05:03:12;;;;;;;15.68;4.35;;;;;;;6.22;86.66;100721.44;4863419;29;20081;-49
2022/01/31 05:05:40;;;;;;;13.15;3.80;;;;;;;6.22;86.09;100740.38;4864096;29;20057;-45
2022/01/31 05:08:08;;;;;;;20.17;4.60;;;;;;;6.21;86.02;100753.09;4862777;29;20082;-48
2022/01/31 05:10:42;;;;;;;14.20;3.92;;;;;;;6.21;86.18;100734.16;4862825;29;20053;-45
2022/01/31 05:13:12;;;;;;;14.15;3.30;;;;;;;6.22;85.31;100730.38;4844853;29;20106;-46
2022/01/31 05:15:40;;;;;;;19.38;4.43;;;;;;;6.21;85.34;100722.53;4844470;29;20132;-48
2022/01/31 05:18:07;;;;;;;15.70;4.60;;;;;;;6.22;84.57;100730.38;4839542;29;20054;-49
2022/01/31 05:20:35;;;;;;;14.73;4.45;;;;;;;6.21;85.09;100715.22;4862947;29;20417;-47
2022/01/31 05:23:06;;;;;;;18.13;3.92;;;;;;;6.22;85.00;100713.34;4862463;29;20049;-48
2022/01/31 05:25:34;;;;;;;14.75;3.80;;;;;;;6.19;85.02;100699.22;4863144;29;20102;-48
2022/01/31 05:28:02;;;;;;;19.60;4.10;;;;;;;6.19;85.08;100699.22;4862524;29;20042;-48
2022/01/31 05:30:30;;;;;;;17.10;3.88;;;;;;;6.19;85.31;100701.94;4862769;29;20049;-47
2022/01/31 05:32:57;;;;;;;16.10;3.90;;;;;;;6.21;84.69;100690.88;4862577;29;20098;-48
2022/01/31 05:35:25;;;;;;;15.23;3.97;;;;;;;6.22;83.62;100695.22;4863185;29;20057;-46
2022/01/31 05:37:52;;;;;;;14.18;3.35;;;;;;;6.22;83.49;100683.56;4862347;29;20065;-46
2022/01/31 05:40:20;;;;;;;13.15;3.75;;;;;;;6.19;83.40;100672.16;4861694;29;20099;-46
2022/01/31 05:42:48;;;;;;;16.58;4.45;;;;;;;6.21;83.94;100663.00;4862385;29;20381;-47
2022/01/31 05:45:15;;;;;;;13.70;3.65;;;;;;;6.25;84.15;100664.94;4862512;29;20074;-46
2022/01/31 05:47:43;;;;;;;9.68;3.35;;;;;;;6.16;84.84;100699.72;4862310;29;20105;-48
2022/01/31 05:50:10;;;;;;;14.25;4.10;;;;;;;6.10;87.10;100724.19;4861845;29;20045;-48
2022/01/31 05:52:38;;;;;;;12.35;3.30;;;;;;;5.96;90.66;100751.53;4861964;29;20102;-46
2022/01/31 05:55:06;;;;;;;12.05;3.30;;;;;;;5.64;91.95;100755.66;4845794;29;20386;-46
2022/01/31 05:57:34;;;;;;;14.80;3.25;;;;;;;5.52;93.72;100745.69;4862213;29;20673;-50
2022/01/31 06:00:03;;;;;;;12.77;3.40;;;;;;;5.48;94.92;100725.63;4845267;29;20051;-50
2022/01/31 06:02:31;;;;;;;7.53;2.60;;;;;;;5.33;95.64;100755.78;4861907;29;20073;-50
2022/01/31 06:05:01;;;;;;;9.13;2.42;;;;;;;5.22;96.38;100715.25;4845413;29;20045;-52
2022/01/31 06:07:29;;;;;;;9.98;3.47;;;;;;;5.24;96.95;100726.66;4862217;29;20042;-49
2022/01/31 06:09:57;;;;;;;15.05;3.75;;;;;;;5.20;97.03;100709.28;4861494;29;20045;-45
2022/01/31 06:12:24;;;;;;;13.55;3.95;;;;;;;5.21;97.69;100700.13;4862152;29;20042;-48
2022/01/31 06:14:52;;;;;;;17.17;4.68;;;;;;;5.23;97.94;100703.41;4861651;29;20118;-49
2022/01/31 06:17:19;;;;;;;14.98;4.35;;;;;;;5.26;97.00;100673.22;4862195;29;20458;-45
2022/01/31 06:19:47;;;;;;;13.02;3.53;;;;;;;5.31;97.28;100689.53;4861663;29;20053;-45
2022/01/31 06:22:14;;;;;;;18.23;4.60;;;;;;;5.32;97.06;100688.50;4861497;29;20049;-44
2022/01/31 06:24:43;;;;;;;14.68;4.90;;;;;;;5.30;97.24;100685.22;4861481;29;20050;-44
2022/01/31 06:27:22;;;;;;;16.52;4.03;;;;;;;5.31;97.35;100689.53;4845315;29;20056;-48
2022/01/31 06:29:49;;;;;;;17.80;3.97;;;;;;;5.33;97.73;100682.84;4829674;29;20389;-44
2022/01/31 06:32:26;;;;;;;19.30;4.40;;;;;;;5.38;97.63;100673.22;4844405;29;20145;-44
2022/01/31 06:34:56;;;;;;;15.57;4.30;;;;;;;5.43;97.64;100679.53;4861074;29;20045;-47
2022/01/31 06:37:24;;;;;;;19.75;4.40;;;;;;;5.41;97.35;100667.31;4861266;29;20489;-44
2022/01/31 06:39:51;;;;;;;17.98;4.30;;;;;;;5.39;97.13;100683.78;4861577;29;20053;-44
2022/01/31 06:42:19;;;;;;;20.88;4.70;;;;;;;5.38;97.14;100662.41;4184094;29;10000815;-49
2022/01/31 06:44:46;;;;;;;19.13;4.97;;;;;;;5.37;96.71;100672.41;4839818;29;20061;-43
2022/01/31 06:47:14;;;;;;;21.48;5.65;;;;;;;5.36;95.51;100684.25;4857829;29;20124;-44
2022/01/31 06:49:42;;;;;;;23.35;5.78;;;;;;;5.39;95.74;100672.97;4858316;29;20078;-44
2022/01/31 06:52:09;;;;;;;22.30;5.32;;;;;;;5.38;95.14;100682.13;4857381;29;20049;-45
2022/01/31 06:54:37;;;;;;;22.25;5.03;;;;;;;5.41;95.08;100670.88;4857920;29;20146;-46
2022/01/31 06:57:05;;;;;;;23.10;4.95;;;;;;;5.42;95.01;100683.31;4857844;29;20049;-45
2022/01/31 06:59:33;;;;;;;20.65;4.93;;;;;;;5.43;95.00;100684.13;4858420;29;20060;-48
2022/01/31 07:02:03;;;;;;;19.63;4.95;;;;;;;5.47;95.14;100696.94;4858033;29;20128;-48
2022/01/31 07:04:31;;;;;;;22.45;5.70;;;;;;;5.47;94.42;100691.53;4841021;29;20065;-48
2022/01/31 07:06:59;;;;;;;16.73;4.80;;;;;;;5.45;94.99;100695.53;4857645;29;20595;-48
2022/01/31 07:09:27;;;;;;;23.67;5.57;;;;;;;5.43;96.08;100698.44;4857419;29;20057;-47
2022/01/31 07:11:59;;;;;;;20.70;5.78;;;;;;;5.42;96.16;100699.53;4857769;29;20109;-48
2022/01/31 07:14:30;;;;;;;25.10;5.72;;;;;;;5.40;96.90;100717.03;4857630;29;20058;-50
2022/01/31 07:17:00;;;;;;;22.92;5.60;;;;;;;5.38;97.44;100703.75;4857213;29;20076;-49
2022/01/31 07:19:31;;;;;;;22.92;5.72;;;;;;;5.37;97.75;100707.53;4857949;29;20052;-49
2022/01/31 07:21:59;;;;;;;21.45;5.10;;;;;;;5.39;97.96;100705.41;4857532;29;20053;-50
2022/01/31 07:27:04;;;;;;;;;;;;;;;5.30;99.52;100739.22;4858132;29;20053;-46
2022/01/31 07:29:32;;;;;;;28.58;6.70;;;;;;;5.21;100.00;100724.44;4857242;29;19934;-42
2022/01/31 07:32:00;;;;;;;23.10;6.47;;;;;;;5.13;99.87;100709.41;4857134;29;20042;-44
2022/01/31 07:34:28;;;;;;;24.13;5.80;;;;;;;5.11;99.18;100703.41;4841124;29;20060;-44
2022/01/31 07:36:55;;;;;;;15.77;4.88;;;;;;;5.07;98.96;100708.44;4857391;29;20058;-43
2022/01/31 07:39:23;;;;;;;19.77;5.53;;;;;;;5.09;98.74;100717.13;4856712;29;20160;-44
2022/01/31 07:41:51;;;;;;;20.33;5.95;;;;;;;5.09;99.47;100702.81;4857155;29;20060;-44
2022/01/31 07:44:18;;;;;;;17.35;4.82;;;;;;;5.09;99.63;100690.13;4857603;29;20045;-45
2022/01/31 07:46:46;;;;;;;21.80;5.43;;;;;;;5.11;100.00;100695.31;4856967;29;20209;-43
2022/01/31 07:49:13;;;;;;;19.77;5.35;;;;;;;5.09;100.00;100686.63;4856991;29;20052;-44
2022/01/31 07:51:41;;;;;;;17.23;4.97;;;;;;;5.09;100.00;100692.84;4857410;29;20517;-49
2022/01/31 07:54:09;;;;;;;21.90;5.82;;;;;;;5.11;100.00;100693.44;4857635;29;20449;-43
2022/01/31 07:56:37;;;;;;;22.73;5.57;;;;;;;5.11;100.00;100688.03;4840789;29;20045;-45
2022/01/31 07:59:05;;;;;;;21.70;5.85;;;;;;;5.13;100.00;100695.91;4857554;29;20144;-45
2022/01/31 08:01:32;;;;;;;22.90;5.57;;;;;;;5.11;100.00;100701.53;4856641;29;20041;-43
2022/01/31 08:04:00;;;;;;;21.83;5.57;;;;;;;5.10;100.00;100713.41;4860262;29;20049;-47
2022/01/31 08:06:28;;;;;;;20.10;5.30;;;;;;;5.12;100.00;100707.75;4860743;29;20489;-50
2022/01/31 08:08:56;;;;;;;24.15;6.47;;;;;;;5.11;100.00;100701.53;4860415;29;20065;-48
2022/01/31 08:11:28;;;;;;;21.83;5.65;;;;;;;5.12;100.00;100689.69;4860611;29;20077;-47
2022/01/31 08:14:00;;;;;;;28.55;6.38;;;;;;;5.11;100.00;100701.53;4844056;29;20061;-46
2022/01/31 08:16:28;;;;;;;21.27;6.40;;;;;;;5.11;100.00;100715.03;4860692;29;20083;-46
2022/01/31 08:18:56;;;;;;;25.98;6.70;;;;;;;5.15;100.00;100711.84;4860893;29;20088;-50
2022/01/31 08:21:24;;;;;;;26.33;7.80;;;;;;;5.15;100.00;100719.97;4860056;29;20048;-50
2022/01/31 08:23:52;;;;;;;30.08;8.43;;;;;;;5.11;99.86;100715.03;4861152;29;20045;-50
2022/01/31 08:26:21;;;;;;;28.60;7.40;;;;;;;5.14;100.00;100719.13;4860721;29;20448;-44
2022/01/31 08:29:00;;;;;;;28.70;6.97;;;;;;;5.13;100.00;100696.72;4856929;29;20053;-45
2022/01/31 08:31:52;;;;;;;27.23;6.32;;;;;;;5.15;100.00;100707.28;4859501;29;20493;-49
2022/01/31 08:34:25;;;;;;;25.98;6.65;;;;;;;5.12;100.00;100700.50;4860524;29;20225;-46
2022/01/31 08:36:52;;;;;;;27.65;7.40;;;;;;;5.13;100.00;100718.31;4844046;29;20049;-48
2022/01/31 08:39:21;;;;;;;31.42;7.85;;;;;;;5.13;100.00;100701.31;4862415;29;20052;-46
2022/01/31 08:41:52;;;;;;;27.48;8.02;;;;;;;5.15;100.00;100712.69;4863496;29;20046;-48
2022/01/31 08:44:23;;;;;;;32.13;7.60;;;;;;;5.18;100.00;100697.91;4862298;29;20045;-49
2022/01/31 08:46:51;;;;;;;31.85;7.90;;;;;;;5.19;100.00;100710.34;4863008;29;20058;-48
2022/01/31 08:49:19;;;;;;;32.95;8.15;;;;;;;5.20;100.00;100706.59;4863226;29;20145;-48
2022/01/31 08:51:47;;;;;;;29.38;7.30;;;;;;;5.21;100.00;100708.22;4863012;29;20048;-47
2022/01/31 08:54:16;;;;;;;26.48;7.45;;;;;;;5.20;99.77;100701.19;4863043;29;20072;-48
2022/01/31 08:56:45;;;;;;;33.55;8.30;;;;;;;5.21;99.50;100706.34;4863334;29;20398;-48
2022/01/31 08:59:18;;;;;;;31.48;7.72;;;;;;;5.22;99.21;100709.84;4862974;29;20073;-45
2022/01/31 09:02:03;;;;;;;32.95;10.23;;;;;;;5.26;96.93;100727.25;4862636;29;20136;-47
2022/01/31 09:04:41;;;;;;;42.47;9.52;;;;;;;5.26;98.11;100743.47;4862397;29;20141;-48
2022/01/31 09:07:09;;;;;;;32.83;10.80;;;;;;;5.26;96.72;100716.44;4862912;29;20049;-44
2022/01/31 09:09:37;;;;;;;33.25;9.00;;;;;;;5.26;98.00;100722.66;4863016;29;20078;-42
2022/01/31 09:12:08;;;;;;;29.67;6.55;;;;;;;5.26;98.79;100721.84;4862838;29;20053;-42
2022/01/31 09:14:36;;;;;;;27.52;6.85;;;;;;;5.22;99.32;100709.84;4861956;29;20524;-43
2022/01/31 09:17:04;;;;;;;28.80;6.43;;;;;;;5.19;99.93;100719.25;4862774;29;20045;-42
2022/01/31 09:19:32;;;;;;;30.15;7.15;;;;;;;5.16;100.00;100716.22;4862858;29;20059;-43
2022/01/31 09:22:01;;;;;;;27.20;6.68;;;;;;;5.13;100.00;100737.22;4862799;29;20046;-44
2022/01/31 09:24:29;;;;;;;29.40;7.80;;;;;;;5.12;100.00;100729.34;4862554;29;20385;-48
2022/01/31 09:26:57;;;;;;;34.38;9.85;;;;;;;5.09;99.53;100727.94;4861157;29;20053;-48
2022/01/31 09:29:25;;;;;;;36.70;8.65;;;;;;;5.09;100.00;100730.63;4862347;29;20042;-47
2022/01/31 09:31:52;;;;;;;33.65;7.97;;;;;;;5.10;100.00;100726.91;4862407;29;20137;-48
2022/01/31 09:34:21;;;;;;;32.85;7.85;;;;;;;5.09;100.00;100719.84;4862645;29;20041;-45
2022/01/31 09:36:49;;;;;;;41.42;12.57;;;;;;;5.07;99.86;100751.66;4861875;29;20505;-46
2022/01/31 09:39:16;;;;;;;35.30;8.80;;;;;;;5.10;100.00;100750.41;4862406;29;20058;-47
2022/01/31 09:41:46;;;;;;;35.38;9.45;;;;;;;5.10;100.00;100728.78;4861943;29;20528;-46
2022/01/31 09:44:27;;;;;;;37.53;8.98;;;;;;;5.10;100.00;100737.72;4862274;29;20057;-47
2022/01/31 09:47:07;;;;;;;43.28;10.82;;;;;;;5.09;99.57;100770.34;4861602;29;20040;-47
2022/01/31 09:49:35;;;;;;;43.78;10.45;;;;;;;5.12;99.70;100765.31;4862709;29;20062;-46
2022/01/31 09:52:03;;;;;;;37.78;9.32;;;;;;;5.12;100.00;100756.34;4862738;29;20415;-51
2022/01/31 09:54:30;;;;;;;43.25;11.65;;;;;;;5.11;98.60;100769.03;4845662;29;20144;-46
2022/01/31 09:56:58;;;;;;;37.38;9.68;;;;;;;5.13;98.42;100791.25;4861808;29;20049;-46
2022/01/31 09:59:26;;;;;;;42.45;9.90;;;;;;;5.15;97.43;100790.16;4862748;29;20478;-47
2022/01/31 10:01:57;;;;;;;45.70;11.35;;;;;;;5.15;97.87;100780.22;4861542;29;20149;-45
2022/01/31 10:04:30;;;;;;;47.08;14.02;;;;;;;5.13;97.50;100783.13;4862022;29;20048;-43
2022/01/31 10:06:58;;;;;;;30.30;6.95;;;;;;;5.11;98.86;100809.56;4861707;29;20523;-43
2022/01/31 10:09:30;;;;;;;45.88;12.15;;;;;;;5.09;98.06;100800.03;4861169;29;20061;-44
2022/01/31 10:12:06;;;;;;;49.13;13.75;;;;;;;5.07;97.65;100802.16;4861847;29;20101;-46
2022/01/31 10:17:45;;;;;;;46.17;10.02;;;;;;;5.07;99.17;100811.06;4861457;29;20048;-45
2022/01/31 10:20:25;;;;;;;48.55;12.80;;;;;;;5.06;97.96;100825.63;4859011;29;20057;-44
2022/01/31 10:22:52;;;;;;;55.15;14.48;;;;;;;5.08;98.18;100820.81;4860854;29;20081;-49
2022/01/31 10:25:22;;;;;;;62.25;15.40;;;;;;;5.09;98.56;100851.34;4860657;29;20446;-48
2022/01/31 10:28:13;;;;;;;51.70;12.55;;;;;;;5.12;96.39;100846.31;4862183;29;20145;-47
2022/01/31 10:30:41;;;;;;;53.70;12.82;;;;;;;5.21;95.48;100854.09;4861058;29;20060;-47
2022/01/31 10:33:10;;;;;;;52.70;14.18;;;;;;;5.22;95.63;100855.72;4861097;29;20059;-47
2022/01/31 10:35:39;;;;;;;66.90;19.70;;;;;;;5.24;94.63;100894.13;4860915;29;20530;-47
2022/01/31 10:38:11;;;;;;;58.90;15.05;;;;;;;5.24;95.18;100865.25;4861195;29;20057;-49
2022/01/31 10:56:55;;;;;;;59.13;15.73;;;;;;;5.09;97.86;100905.38;4860417;29;20353;-44
2022/01/31 10:59:36;;;;;;;54.60;15.43;;;;;;;5.12;98.13;100884.13;4844191;29;20465;-45
2022/01/31 11:02:20;;;;;;;55.85;15.82;;;;;;;5.12;97.38;100921.94;4860039;29;20049;-47
2022/01/31 11:04:49;;;;;;;50.72;11.32;;;;;;;5.17;96.30;100891.56;4860843;29;20052;-47
2022/01/31 11:07:19;;;;;;;53.35;11.52;;;;;;;5.21;97.08;100906.22;4861126;29;20286;-46
2022/01/31 11:09:49;;;;;;;44.17;10.73;;;;;;;5.21;97.51;100914.31;4859983;29;20460;-47
2022/01/31 11:12:22;;;;;;;51.22;13.73;;;;;;;5.18;96.35;100943.69;4860096;29;20057;-45
2022/01/31 11:14:53;;;;;;;55.03;13.50;;;;;;;5.11;97.89;100922.16;4860586;29;20065;-44
2022/01/31 11:17:22;;;;;;;46.20;11.23;;;;;;;5.04;99.78;100919.56;4861189;29;20049;-45
2022/01/31 11:19:56;;;;;;;53.53;13.10;;;;;;;5.00;100.00;100921.03;4854951;29;20477;-45
2022/01/31 11:22:34;;;;;;;50.15;14.13;;;;;;;4.95;100.00;100923.63;4860323;29;20053;-45
2022/01/31 11:25:15;;;;;;;42.58;10.55;;;;;;;4.95;100.00;100920.91;4860267;29;20049;-43
2022/01/31 11:27:52;;;;;;;;;;;;;;;4.92;100.00;100953.78;4860731;29;20216;-45
2022/01/31 11:30:22;;;;;;;41.53;10.90;;;;;;;4.93;100.00;100928.44;4859738;29;19924;-48
2022/01/31 11:33:03;;;;;;;44.10;11.85;;;;;;;4.90;100.00;100936.97;4845131;29;20050;-46
2022/01/31 11:35:31;;;;;;;48.08;12.90;;;;;;;4.88;100.00;100941.78;4183796;29;10000818;-47
2022/01/31 11:37:58;;;;;;;49.78;12.95;;;;;;;4.87;100.00;100940.97;4841898;29;20390;-46
2022/01/31 11:40:26;;;;;;;45.80;13.68;;;;;;;4.85;100.00;100953.84;4850859;29;20053;-47
2022/01/31 11:42:54;;;;;;;46.08;12.68;;;;;;;4.88;100.00;100936.38;4861297;29;20045;-42
2022/01/31 11:45:29;;;;;;;48.00;15.18;;;;;;;4.88;100.00;100930.97;4859357;29;20553;-45
2022/01/31 11:47:59;;;;;;;50.03;12.02;;;;;;;4.91;100.00;100941.34;4860554;29;20056;-46
2022/01/31 11:50:27;;;;;;;53.60;13.07;;;;;;;4.92;100.00;100967.28;4859298;29;20064;-48
2022/01/31 11:53:02;;;;;;;49.97;12.55;;;;;;;4.94;100.00;100940.88;4860483;29;20049;-47
2022/01/31 11:55:35;;;;;;;54.20;12.20;;;;;;;4.92;100.00;100951.06;4859848;29;20140;-45
2022/01/31 11:58:06;;;;;;;58.40;11.93;;;;;;;4.93;100.00;100950.03;4860670;29;20055;-47